Gallatin, TN

5:08 PM CST on December 04, 2016 (GMT -0600)
Foxfire 2 Subdivision | | Change Station

Elev 479 ft 36.37 °N, 86.46 °W | Updated 4 seconds ago

Light Drizzle
Light Drizzle Mist
48.2 °F
Feels Like 48 °F
N
0.0
Wind Variable Wind from WNW
Gusts 0.0 mph

Today
High -- | Low -- °F
--% Chance of Precip.
Yesterday
High -- | Low -- °F
Precip. -- in
Pressure 29.97 in
Visibility 2.0 miles
Clouds Overcast 1300 ft
Windchill 48 °F
Dew Point 46 °F
Humidity 91%
Rainfall 0.29 in
Snow Depth Not available.
6:42 AM 4:30 PM
Waxing Crescent, 26% visible
SPECI KBNA 042306Z 22003KT 2SM -DZ BR OVC013 09/08 A2997 RMK AO2 SFC VIS 3 P0000 T00890078 $
Pressure 29.97 in
Visibility 2.0 miles
Clouds Overcast 1300 ft
Windchill 48 °F
Dew Point 46 °F
Humidity 91%
Rainfall 0.29 in
Snow Depth Not available.
6:42 AM 4:30 PM
Waxing Crescent, 26% visible
SPECI KBNA 042306Z 22003KT 2SM -DZ BR OVC013 09/08 A2997 RMK AO2 SFC VIS 3 P0000 T00890078 $

10-Day Weather Forecast

Almanac

Astronomy

Dec. 04, 2016 Rise Set
Actual Time
Civil Twilight
Nautical Twilight
Astronomical Twilight
Moon
Length of Visible Light
Length of Day
Tomorrow will be .
, % of the Moon is Illuminated

Today's Extremes

State Highs State Lows

Community

WunderPhotos

Upload Photos

1,955,695 photos uploaded!

WunderBlog® & News

Nearby

Air Quality

  Air Quality AQ Index Pollutant
Not available.

Snow Depth

Station Depth Elevation

Earthquake Activity

City Distance Mag. Time & Date
Minimum magnitude displayed is 2.5.

Coastal Water Temperatures

Place Temperature

Stations

Nearby Weather Stations

Station Location Temp. Windchill Dew Point Humidity Wind Precip. Elev Updated Type
                   

Watches & Warnings

There are currently no watches in effect.